sensor_id;sensor_type;location;lat;lon;timestamp;pressure;altitude;pressure_sealevel;temperature;humidity
21988;BME280;11158;53.404;-1.510;2022-09-14T00:02:07;99966.47;;;15.62;58.45
21988;BME280;11158;53.404;-1.510;2022-09-14T00:04:33;99966.56;;;15.74;58.02
21988;BME280;11158;53.404;-1.510;2022-09-14T00:06:58;99964.13;;;15.66;58.03
21988;BME280;11158;53.404;-1.510;2022-09-14T00:09:24;99961.09;;;15.62;57.99
21988;BME280;11158;53.404;-1.510;2022-09-14T00:11:50;99951.44;;;15.55;58.49
21988;BME280;11158;53.404;-1.510;2022-09-14T00:14:18;99958.72;;;15.36;59.01
21988;BME280;11158;53.404;-1.510;2022-09-14T00:16:43;99960.97;;;15.02;60.08
21988;BME280;11158;53.404;-1.510;2022-09-14T00:19:21;99958.13;;;14.78;60.96
21988;BME280;11158;53.404;-1.510;2022-09-14T00:21:53;99965.56;;;14.33;61.88
21988;BME280;11158;53.404;-1.510;2022-09-14T00:24:21;99955.56;;;14.40;61.96
21988;BME280;11158;53.404;-1.510;2022-09-14T00:26:47;99962.22;;;14.62;61.67
21988;BME280;11158;53.404;-1.510;2022-09-14T00:29:12;99954.84;;;14.95;60.55
21988;BME280;11158;53.404;-1.510;2022-09-14T00:31:39;99946.94;;;15.00;59.90
21988;BME280;11158;53.404;-1.510;2022-09-14T00:34:07;99941.84;;;15.28;59.45
21988;BME280;11158;53.404;-1.510;2022-09-14T00:36:37;99947.06;;;14.86;59.95
21988;BME280;11158;53.404;-1.510;2022-09-14T00:39:04;99941.00;;;14.48;61.61
21988;BME280;11158;53.404;-1.510;2022-09-14T00:41:33;99936.38;;;14.11;62.81
21988;BME280;11158;53.404;-1.510;2022-09-14T00:49:05;99928.47;;;15.03;60.59
21988;BME280;11158;53.404;-1.510;2022-09-14T00:51:33;99923.38;;;14.95;60.32
21988;BME280;11158;53.404;-1.510;2022-09-14T00:54:03;99922.72;;;15.00;60.23
21988;BME280;11158;53.404;-1.510;2022-09-14T00:56:30;99919.06;;;15.13;59.66
21988;BME280;11158;53.404;-1.510;2022-09-14T00:58:57;99920.66;;;15.32;58.97
21988;BME280;11158;53.404;-1.510;2022-09-14T01:01:25;99920.53;;;15.08;59.51
21988;BME280;11158;53.404;-1.510;2022-09-14T01:03:51;99916.72;;;15.16;59.09
21988;BME280;11158;53.404;-1.510;2022-09-14T01:06:35;99913.81;;;15.18;58.71
21988;BME280;11158;53.404;-1.510;2022-09-14T01:09:08;99914.94;;;15.10;58.80
21988;BME280;11158;53.404;-1.510;2022-09-14T01:15:05;99917.88;;;13.96;62.23
21988;BME280;11158;53.404;-1.510;2022-09-14T01:20:36;99902.97;;;13.69;64.36
21988;BME280;11158;53.404;-1.510;2022-09-14T01:28:34;99909.38;;;14.24;63.42
21988;BME280;11158;53.404;-1.510;2022-09-14T01:31:14;99905.09;;;14.17;63.29
21988;BME280;11158;53.404;-1.510;2022-09-14T01:33:53;99894.59;;;14.09;62.87
21988;BME280;11158;53.404;-1.510;2022-09-14T01:36:25;99890.22;;;13.89;63.33
21988;BME280;11158;53.404;-1.510;2022-09-14T01:38:56;99886.41;;;13.72;64.19
21988;BME280;11158;53.404;-1.510;2022-09-14T01:41:26;99881.06;;;13.97;63.87
21988;BME280;11158;53.404;-1.510;2022-09-14T01:43:59;99881.31;;;13.95;63.72
21988;BME280;11158;53.404;-1.510;2022-09-14T01:46:39;99874.88;;;13.96;63.81
21988;BME280;11158;53.404;-1.510;2022-09-14T01:49:22;99871.59;;;13.94;63.31
21988;BME280;11158;53.404;-1.510;2022-09-14T01:52:11;99874.72;;;13.91;63.88
21988;BME280;11158;53.404;-1.510;2022-09-14T01:57:25;99857.22;;;14.51;61.79
21988;BME280;11158;53.404;-1.510;2022-09-14T01:59:56;99857.78;;;14.16;62.26
21988;BME280;11158;53.404;-1.510;2022-09-14T02:02:28;99856.00;;;14.46;61.52
21988;BME280;11158;53.404;-1.510;2022-09-14T02:07:48;99857.25;;;14.87;59.60
21988;BME280;11158;53.404;-1.510;2022-09-14T02:10:15;99862.69;;;14.99;59.61
21988;BME280;11158;53.404;-1.510;2022-09-14T02:12:42;99859.22;;;15.11;58.78
21988;BME280;11158;53.404;-1.510;2022-09-14T02:15:13;99856.19;;;14.88;59.35
21988;BME280;11158;53.404;-1.510;2022-09-14T02:17:39;99864.66;;;14.74;59.82
21988;BME280;11158;53.404;-1.510;2022-09-14T02:20:09;99866.53;;;14.55;60.39
21988;BME280;11158;53.404;-1.510;2022-09-14T02:22:38;99863.03;;;14.48;60.73
21988;BME280;11158;53.404;-1.510;2022-09-14T02:25:04;99863.47;;;14.44;60.60
21988;BME280;11158;53.404;-1.510;2022-09-14T02:27:29;99862.94;;;14.36;60.99
21988;BME280;11158;53.404;-1.510;2022-09-14T02:29:55;99870.16;;;14.60;60.43
21988;BME280;11158;53.404;-1.510;2022-09-14T02:35:04;99866.59;;;14.85;59.17
21988;BME280;11158;53.404;-1.510;2022-09-14T02:40:22;99866.88;;;14.15;61.21
21988;BME280;11158;53.404;-1.510;2022-09-14T02:48:11;99877.00;;;14.13;62.50
21988;BME280;11158;53.404;-1.510;2022-09-14T02:51:00;99867.38;;;15.04;60.55
21988;BME280;11158;53.404;-1.510;2022-09-14T02:53:39;99868.47;;;14.84;60.21
21988;BME280;11158;53.404;-1.510;2022-09-14T02:56:09;99862.91;;;14.61;61.02
21988;BME280;11158;53.404;-1.510;2022-09-14T02:58:38;99867.03;;;14.82;60.51
21988;BME280;11158;53.404;-1.510;2022-09-14T03:01:05;99846.47;;;14.87;60.39
21988;BME280;11158;53.404;-1.510;2022-09-14T03:03:32;99846.47;;;14.87;60.49
21988;BME280;11158;53.404;-1.510;2022-09-14T03:05:57;99838.94;;;15.26;59.62
21988;BME280;11158;53.404;-1.510;2022-09-14T03:08:25;99844.81;;;15.35;59.25
21988;BME280;11158;53.404;-1.510;2022-09-14T03:10:51;99829.66;;;15.64;58.37
21988;BME280;11158;53.404;-1.510;2022-09-14T03:13:17;99824.16;;;15.59;58.64
21988;BME280;11158;53.404;-1.510;2022-09-14T03:15:43;99824.84;;;15.55;58.18
21988;BME280;11158;53.404;-1.510;2022-09-14T03:18:08;99817.56;;;15.13;59.40
21988;BME280;11158;53.404;-1.510;2022-09-14T03:20:34;99816.25;;;15.34;59.13
21988;BME280;11158;53.404;-1.510;2022-09-14T03:23:03;99818.25;;;15.81;58.00
21988;BME280;11158;53.404;-1.510;2022-09-14T03:25:30;99812.53;;;15.47;58.49
21988;BME280;11158;53.404;-1.510;2022-09-14T03:28:00;99802.28;;;14.95;60.51
21988;BME280;11158;53.404;-1.510;2022-09-14T03:30:26;99804.72;;;15.15;60.37
21988;BME280;11158;53.404;-1.510;2022-09-14T03:32:52;99791.53;;;14.95;60.89
21988;BME280;11158;53.404;-1.510;2022-09-14T03:35:18;99798.22;;;14.74;61.73
21988;BME280;11158;53.404;-1.510;2022-09-14T03:37:44;99801.25;;;14.96;61.62
21988;BME280;11158;53.404;-1.510;2022-09-14T03:40:12;99799.09;;;15.17;60.50
21988;BME280;11158;53.404;-1.510;2022-09-14T03:42:46;99805.94;;;15.31;60.75
21988;BME280;11158;53.404;-1.510;2022-09-14T03:45:13;99809.53;;;15.67;59.25
21988;BME280;11158;53.404;-1.510;2022-09-14T03:47:40;99800.00;;;15.53;58.99
21988;BME280;11158;53.404;-1.510;2022-09-14T03:50:07;99807.19;;;15.17;60.15
21988;BME280;11158;53.404;-1.510;2022-09-14T03:52:34;99802.56;;;15.05;60.40
21988;BME280;11158;53.404;-1.510;2022-09-14T03:55:00;99811.38;;;14.82;61.67
21988;BME280;11158;53.404;-1.510;2022-09-14T03:57:26;99808.28;;;14.79;61.83
21988;BME280;11158;53.404;-1.510;2022-09-14T03:59:52;99807.47;;;14.78;61.72
21988;BME280;11158;53.404;-1.510;2022-09-14T04:02:17;99808.75;;;14.76;61.90
21988;BME280;11158;53.404;-1.510;2022-09-14T04:04:44;99805.31;;;14.87;61.61
21988;BME280;11158;53.404;-1.510;2022-09-14T04:07:10;99790.41;;;15.03;60.86
21988;BME280;11158;53.404;-1.510;2022-09-14T04:09:36;99783.34;;;15.02;60.75
21988;BME280;11158;53.404;-1.510;2022-09-14T04:12:02;99788.22;;;14.93;61.05
21988;BME280;11158;53.404;-1.510;2022-09-14T04:14:27;99788.06;;;15.06;60.83
21988;BME280;11158;53.404;-1.510;2022-09-14T04:16:53;99792.63;;;15.06;60.55
21988;BME280;11158;53.404;-1.510;2022-09-14T04:19:18;99790.41;;;14.48;62.12
21988;BME280;11158;53.404;-1.510;2022-09-14T04:21:44;99799.69;;;14.52;62.41
21988;BME280;11158;53.404;-1.510;2022-09-14T04:24:11;99810.25;;;14.72;61.55
21988;BME280;11158;53.404;-1.510;2022-09-14T04:26:40;99806.59;;;14.66;61.88
21988;BME280;11158;53.404;-1.510;2022-09-14T04:29:06;99811.53;;;14.69;62.03
21988;BME280;11158;53.404;-1.510;2022-09-14T04:31:33;99803.69;;;14.98;61.06
21988;BME280;11158;53.404;-1.510;2022-09-14T04:33:59;99804.13;;;15.13;60.32
21988;BME280;11158;53.404;-1.510;2022-09-14T04:36:26;99804.03;;;15.20;60.22
21988;BME280;11158;53.404;-1.510;2022-09-14T04:38:55;99797.69;;;15.14;60.11
21988;BME280;11158;53.404;-1.510;2022-09-14T04:41:22;99796.38;;;15.05;60.33
21988;BME280;11158;53.404;-1.510;2022-09-14T04:43:50;99795.72;;;15.21;60.03
21988;BME280;11158;53.404;-1.510;2022-09-14T04:46:18;99796.00;;;15.43;59.32
21988;BME280;11158;53.404;-1.510;2022-09-14T04:48:44;99787.22;;;15.48;59.02
21988;BME280;11158;53.404;-1.510;2022-09-14T04:51:12;99793.91;;;15.57;58.64
21988;BME280;11158;53.404;-1.510;2022-09-14T04:53:42;99782.09;;;15.46;58.96
21988;BME280;11158;53.404;-1.510;2022-09-14T04:56:12;99785.41;;;15.18;60.04
21988;BME280;11158;53.404;-1.510;2022-09-14T04:58:44;99783.50;;;15.07;60.55
21988;BME280;11158;53.404;-1.510;2022-09-14T05:01:12;99780.44;;;15.03;60.92
21988;BME280;11158;53.404;-1.510;2022-09-14T05:03:39;99776.47;;;15.06;60.74
21988;BME280;11158;53.404;-1.510;2022-09-14T05:06:16;99782.59;;;15.13;60.78
21988;BME280;11158;53.404;-1.510;2022-09-14T05:08:43;99782.50;;;15.20;60.25
21988;BME280;11158;53.404;-1.510;2022-09-14T05:11:12;99775.91;;;15.16;60.38
21988;BME280;11158;53.404;-1.510;2022-09-14T05:13:39;99782.72;;;15.18;60.10
21988;BME280;11158;53.404;-1.510;2022-09-14T05:16:13;99775.81;;;15.22;59.86
21988;BME280;11158;53.404;-1.510;2022-09-14T05:18:42;99775.09;;;15.15;59.84
21988;BME280;11158;53.404;-1.510;2022-09-14T05:21:10;99778.63;;;14.85;60.73
21988;BME280;11158;53.404;-1.510;2022-09-14T05:23:36;99776.78;;;14.98;60.80
21988;BME280;11158;53.404;-1.510;2022-09-14T05:26:02;99765.59;;;15.01;60.47
21988;BME280;11158;53.404;-1.510;2022-09-14T05:28:30;99771.09;;;15.06;60.36
21988;BME280;11158;53.404;-1.510;2022-09-14T05:30:56;99768.09;;;15.14;59.78
21988;BME280;11158;53.404;-1.510;2022-09-14T05:33:21;99773.09;;;14.80;61.00
21988;BME280;11158;53.404;-1.510;2022-09-14T05:35:48;99773.75;;;14.94;60.59
21988;BME280;11158;53.404;-1.510;2022-09-14T05:38:14;99784.47;;;14.82;60.85
21988;BME280;11158;53.404;-1.510;2022-09-14T05:40:40;99775.91;;;14.55;61.42
21988;BME280;11158;53.404;-1.510;2022-09-14T05:43:06;99778.03;;;14.83;61.19
21988;BME280;11158;53.404;-1.510;2022-09-14T05:45:33;99779.03;;;15.01;60.47
21988;BME280;11158;53.404;-1.510;2022-09-14T05:48:00;99786.50;;;14.99;60.11
21988;BME280;11158;53.404;-1.510;2022-09-14T05:50:27;99778.19;;;15.31;59.53
21988;BME280;11158;53.404;-1.510;2022-09-14T05:52:53;99782.75;;;15.30;59.52
21988;BME280;11158;53.404;-1.510;2022-09-14T05:55:20;99775.94;;;15.27;59.74
21988;BME280;11158;53.404;-1.510;2022-09-14T05:57:50;99773.94;;;15.23;59.85
21988;BME280;11158;53.404;-1.510;2022-09-14T06:00:16;99759.88;;;15.63;59.12
21988;BME280;11158;53.404;-1.510;2022-09-14T06:02:50;99765.41;;;15.91;58.50
21988;BME280;11158;53.404;-1.510;2022-09-14T06:05:16;99756.97;;;16.00;57.95
21988;BME280;11158;53.404;-1.510;2022-09-14T06:07:42;99763.97;;;16.12;57.49
21988;BME280;11158;53.404;-1.510;2022-09-14T06:10:09;99756.03;;;16.18;57.06
21988;BME280;11158;53.404;-1.510;2022-09-14T06:12:35;99757.69;;;17.00;54.82
21988;BME280;11158;53.404;-1.510;2022-09-14T06:15:01;99755.44;;;17.59;53.35
21988;BME280;11158;53.404;-1.510;2022-09-14T06:17:30;99755.69;;;17.57;52.81
21988;BME280;11158;53.404;-1.510;2022-09-14T06:19:55;99754.50;;;17.20;54.09
21988;BME280;11158;53.404;-1.510;2022-09-14T06:22:21;99741.03;;;17.87;52.81
21988;BME280;11158;53.404;-1.510;2022-09-14T06:24:46;99731.00;;;18.93;50.26
21988;BME280;11158;53.404;-1.510;2022-09-14T06:27:12;99724.75;;;19.94;47.67
21988;BME280;11158;53.404;-1.510;2022-09-14T06:29:40;99726.34;;;20.43;45.77
21988;BME280;11158;53.404;-1.510;2022-09-14T06:32:06;99727.34;;;20.21;46.49
21988;BME280;11158;53.404;-1.510;2022-09-14T06:34:31;99727.22;;;20.54;46.02
21988;BME280;11158;53.404;-1.510;2022-09-14T06:36:58;99735.72;;;20.73;44.86
21988;BME280;11158;53.404;-1.510;2022-09-14T06:39:24;99735.75;;;20.83;44.98
21988;BME280;11158;53.404;-1.510;2022-09-14T06:41:50;99738.16;;;20.74;45.24
21988;BME280;11158;53.404;-1.510;2022-09-14T06:44:17;99735.81;;;21.70;43.16
21988;BME280;11158;53.404;-1.510;2022-09-14T06:46:43;99728.38;;;22.76;41.20
21988;BME280;11158;53.404;-1.510;2022-09-14T06:49:12;99725.91;;;23.88;38.75
21988;BME280;11158;53.404;-1.510;2022-09-14T06:51:41;99729.09;;;24.43;37.03
